sensor_id;sensor_type;location;lat;lon;timestamp;P1;durP1;ratioP1;P2;durP2;ratioP2
73107;SDS011;61559;50.476;15.588;2023-08-30T00:01:00;2.30;;;0.60;;
73107;SDS011;61559;50.476;15.588;2023-08-30T00:03:35;1.20;;;0.40;;
73107;SDS011;61559;50.476;15.588;2023-08-30T00:06:07;0.90;;;0.50;;
73107;SDS011;61559;50.476;15.588;2023-08-30T00:08:38;1.90;;;0.80;;
73107;SDS011;61559;50.476;15.588;2023-08-30T00:11:10;1.10;;;0.60;;
73107;SDS011;61559;50.476;15.588;2023-08-30T00:13:41;1.40;;;0.60;;
73107;SDS011;61559;50.476;15.588;2023-08-30T00:16:12;0.70;;;0.60;;
73107;SDS011;61559;50.476;15.588;2023-08-30T00:18:45;0.50;;;0.40;;
73107;SDS011;61559;50.476;15.588;2023-08-30T00:21:17;1.30;;;0.50;;
73107;SDS011;61559;50.476;15.588;2023-08-30T00:23:49;0.70;;;0.50;;
73107;SDS011;61559;50.476;15.588;2023-08-30T00:26:20;0.60;;;0.60;;
73107;SDS011;61559;50.476;15.588;2023-08-30T00:28:51;1.40;;;0.60;;
73107;SDS011;61559;50.476;15.588;2023-08-30T00:31:22;0.80;;;0.60;;
73107;SDS011;61559;50.476;15.588;2023-08-30T00:33:53;1.80;;;0.80;;
73107;SDS011;61559;50.476;15.588;2023-08-30T00:36:24;2.30;;;1.00;;
73107;SDS011;61559;50.476;15.588;2023-08-30T00:38:56;3.40;;;0.80;;
73107;SDS011;61559;50.476;15.588;2023-08-30T00:41:27;1.50;;;0.50;;
73107;SDS011;61559;50.476;15.588;2023-08-30T00:43:58;1.70;;;0.70;;
73107;SDS011;61559;50.476;15.588;2023-08-30T00:46:29;2.70;;;1.00;;
73107;SDS011;61559;50.476;15.588;2023-08-30T00:49:01;1.60;;;0.70;;
73107;SDS011;61559;50.476;15.588;2023-08-30T00:51:33;0.80;;;0.70;;
73107;SDS011;61559;50.476;15.588;2023-08-30T00:54:05;0.90;;;0.60;;
73107;SDS011;61559;50.476;15.588;2023-08-30T00:56:37;2.90;;;1.00;;
73107;SDS011;61559;50.476;15.588;2023-08-30T00:59:08;1.80;;;0.90;;
73107;SDS011;61559;50.476;15.588;2023-08-30T01:01:39;2.10;;;1.00;;
73107;SDS011;61559;50.476;15.588;2023-08-30T01:04:11;1.60;;;0.80;;
73107;SDS011;61559;50.476;15.588;2023-08-30T01:06:42;3.10;;;0.80;;
73107;SDS011;61559;50.476;15.588;2023-08-30T01:09:14;3.00;;;0.70;;
73107;SDS011;61559;50.476;15.588;2023-08-30T01:11:48;1.10;;;0.70;;
73107;SDS011;61559;50.476;15.588;2023-08-30T01:14:27;1.80;;;1.20;;
73107;SDS011;61559;50.476;15.588;2023-08-30T01:17:04;3.70;;;1.30;;
73107;SDS011;61559;50.476;15.588;2023-08-30T01:19:39;2.80;;;1.40;;
73107;SDS011;61559;50.476;15.588;2023-08-30T01:22:19;2.70;;;1.40;;
73107;SDS011;61559;50.476;15.588;2023-08-30T01:25:00;2.40;;;1.50;;
73107;SDS011;61559;50.476;15.588;2023-08-30T01:27:45;4.90;;;1.40;;
73107;SDS011;61559;50.476;15.588;2023-08-30T01:30:17;3.10;;;1.50;;
73107;SDS011;61559;50.476;15.588;2023-08-30T01:32:50;1.80;;;1.40;;
73107;SDS011;61559;50.476;15.588;2023-08-30T01:35:24;3.00;;;1.80;;
73107;SDS011;61559;50.476;15.588;2023-08-30T01:38:01;3.70;;;1.70;;
73107;SDS011;61559;50.476;15.588;2023-08-30T01:40:35;3.10;;;1.50;;
73107;SDS011;61559;50.476;15.588;2023-08-30T01:43:08;3.10;;;1.60;;
73107;SDS011;61559;50.476;15.588;2023-08-30T01:45:41;7.50;;;1.30;;
73107;SDS011;61559;50.476;15.588;2023-08-30T01:48:14;3.30;;;1.20;;
73107;SDS011;61559;50.476;15.588;2023-08-30T01:50:47;3.50;;;1.60;;
73107;SDS011;61559;50.476;15.588;2023-08-30T01:53:18;2.60;;;1.40;;
73107;SDS011;61559;50.476;15.588;2023-08-30T01:55:51;3.60;;;1.80;;
73107;SDS011;61559;50.476;15.588;2023-08-30T01:58:22;5.50;;;1.60;;
73107;SDS011;61559;50.476;15.588;2023-08-30T02:00:53;2.40;;;1.50;;
73107;SDS011;61559;50.476;15.588;2023-08-30T02:03:24;4.10;;;1.50;;
73107;SDS011;61559;50.476;15.588;2023-08-30T02:06:00;2.90;;;1.60;;
73107;SDS011;61559;50.476;15.588;2023-08-30T02:08:37;2.50;;;1.40;;
73107;SDS011;61559;50.476;15.588;2023-08-30T02:11:13;2.80;;;1.60;;
73107;SDS011;61559;50.476;15.588;2023-08-30T02:13:48;3.40;;;1.50;;
73107;SDS011;61559;50.476;15.588;2023-08-30T02:16:22;3.80;;;1.50;;
73107;SDS011;61559;50.476;15.588;2023-08-30T02:18:55;1.90;;;1.00;;
73107;SDS011;61559;50.476;15.588;2023-08-30T02:21:26;2.50;;;1.20;;
73107;SDS011;61559;50.476;15.588;2023-08-30T02:23:57;2.90;;;1.70;;
73107;SDS011;61559;50.476;15.588;2023-08-30T02:26:29;2.10;;;1.40;;
73107;SDS011;61559;50.476;15.588;2023-08-30T02:29:00;4.80;;;1.90;;
73107;SDS011;61559;50.476;15.588;2023-08-30T02:31:31;3.10;;;1.60;;
73107;SDS011;61559;50.476;15.588;2023-08-30T02:34:02;3.70;;;1.90;;
73107;SDS011;61559;50.476;15.588;2023-08-30T02:36:34;6.60;;;2.60;;
73107;SDS011;61559;50.476;15.588;2023-08-30T02:39:05;3.80;;;2.40;;
73107;SDS011;61559;50.476;15.588;2023-08-30T02:41:36;3.80;;;2.00;;
73107;SDS011;61559;50.476;15.588;2023-08-30T02:44:10;3.70;;;1.90;;
73107;SDS011;61559;50.476;15.588;2023-08-30T02:46:41;3.30;;;1.60;;
73107;SDS011;61559;50.476;15.588;2023-08-30T02:49:12;4.80;;;2.00;;
73107;SDS011;61559;50.476;15.588;2023-08-30T02:51:44;3.50;;;1.90;;
73107;SDS011;61559;50.476;15.588;2023-08-30T02:54:15;2.90;;;2.10;;
73107;SDS011;61559;50.476;15.588;2023-08-30T02:56:47;7.20;;;1.90;;
73107;SDS011;61559;50.476;15.588;2023-08-30T02:59:18;4.20;;;2.00;;
73107;SDS011;61559;50.476;15.588;2023-08-30T03:01:50;4.20;;;1.90;;
73107;SDS011;61559;50.476;15.588;2023-08-30T03:04:21;2.40;;;1.40;;
73107;SDS011;61559;50.476;15.588;2023-08-30T03:06:52;3.10;;;1.70;;
73107;SDS011;61559;50.476;15.588;2023-08-30T03:09:23;4.10;;;1.70;;
73107;SDS011;61559;50.476;15.588;2023-08-30T03:11:54;2.50;;;1.40;;
73107;SDS011;61559;50.476;15.588;2023-08-30T03:14:25;2.70;;;1.40;;
73107;SDS011;61559;50.476;15.588;2023-08-30T03:16:56;2.70;;;1.40;;
73107;SDS011;61559;50.476;15.588;2023-08-30T03:19:28;2.00;;;1.30;;
73107;SDS011;61559;50.476;15.588;2023-08-30T03:21:58;3.40;;;1.60;;
73107;SDS011;61559;50.476;15.588;2023-08-30T03:24:29;3.70;;;1.30;;
73107;SDS011;61559;50.476;15.588;2023-08-30T03:27:01;4.50;;;1.50;;
73107;SDS011;61559;50.476;15.588;2023-08-30T03:29:32;2.60;;;1.20;;
73107;SDS011;61559;50.476;15.588;2023-08-30T03:32:04;2.10;;;1.00;;
73107;SDS011;61559;50.476;15.588;2023-08-30T03:34:35;2.30;;;1.10;;
73107;SDS011;61559;50.476;15.588;2023-08-30T03:37:07;2.30;;;0.90;;
73107;SDS011;61559;50.476;15.588;2023-08-30T03:39:38;1.30;;;0.90;;
73107;SDS011;61559;50.476;15.588;2023-08-30T03:42:09;1.20;;;0.70;;
73107;SDS011;61559;50.476;15.588;2023-08-30T03:44:40;1.40;;;0.80;;
73107;SDS011;61559;50.476;15.588;2023-08-30T03:47:12;1.30;;;1.00;;
73107;SDS011;61559;50.476;15.588;2023-08-30T03:49:44;1.50;;;0.80;;
73107;SDS011;61559;50.476;15.588;2023-08-30T03:52:16;1.60;;;0.70;;
73107;SDS011;61559;50.476;15.588;2023-08-30T03:54:47;1.50;;;0.80;;
73107;SDS011;61559;50.476;15.588;2023-08-30T03:57:18;1.30;;;0.60;;
73107;SDS011;61559;50.476;15.588;2023-08-30T03:59:50;1.90;;;0.80;;
73107;SDS011;61559;50.476;15.588;2023-08-30T04:02:22;1.70;;;1.00;;
73107;SDS011;61559;50.476;15.588;2023-08-30T04:04:53;1.40;;;0.80;;
73107;SDS011;61559;50.476;15.588;2023-08-30T04:07:24;2.00;;;0.70;;
73107;SDS011;61559;50.476;15.588;2023-08-30T04:09:55;2.10;;;0.70;;
73107;SDS011;61559;50.476;15.588;2023-08-30T04:12:27;1.60;;;0.70;;
73107;SDS011;61559;50.476;15.588;2023-08-30T04:14:59;1.20;;;0.70;;
73107;SDS011;61559;50.476;15.588;2023-08-30T04:17:31;1.30;;;0.70;;
73107;SDS011;61559;50.476;15.588;2023-08-30T04:20:02;1.10;;;0.50;;
73107;SDS011;61559;50.476;15.588;2023-08-30T04:22:34;1.60;;;0.40;;
73107;SDS011;61559;50.476;15.588;2023-08-30T04:25:05;0.50;;;0.40;;
73107;SDS011;61559;50.476;15.588;2023-08-30T04:27:38;0.80;;;0.60;;
73107;SDS011;61559;50.476;15.588;2023-08-30T04:30:10;0.90;;;0.50;;
73107;SDS011;61559;50.476;15.588;2023-08-30T04:32:42;0.70;;;0.40;;
73107;SDS011;61559;50.476;15.588;2023-08-30T04:35:13;0.40;;;0.30;;
73107;SDS011;61559;50.476;15.588;2023-08-30T04:37:44;0.80;;;0.50;;
73107;SDS011;61559;50.476;15.588;2023-08-30T04:40:17;1.30;;;0.50;;
73107;SDS011;61559;50.476;15.588;2023-08-30T04:42:48;1.60;;;0.70;;
73107;SDS011;61559;50.476;15.588;2023-08-30T04:45:19;0.60;;;0.40;;
73107;SDS011;61559;50.476;15.588;2023-08-30T04:47:50;1.70;;;0.90;;
73107;SDS011;61559;50.476;15.588;2023-08-30T04:50:21;0.50;;;0.50;;
73107;SDS011;61559;50.476;15.588;2023-08-30T04:52:52;1.10;;;0.70;;
73107;SDS011;61559;50.476;15.588;2023-08-30T04:55:24;1.70;;;0.70;;
73107;SDS011;61559;50.476;15.588;2023-08-30T04:57:57;1.80;;;0.70;;
73107;SDS011;61559;50.476;15.588;2023-08-30T05:00:28;0.60;;;0.50;;
73107;SDS011;61559;50.476;15.588;2023-08-30T05:03:00;0.90;;;0.60;;
73107;SDS011;61559;50.476;15.588;2023-08-30T05:05:32;2.00;;;0.90;;
73107;SDS011;61559;50.476;15.588;2023-08-30T05:08:04;3.60;;;0.60;;
73107;SDS011;61559;50.476;15.588;2023-08-30T05:10:36;3.00;;;0.90;;
73107;SDS011;61559;50.476;15.588;2023-08-30T05:13:08;2.50;;;0.90;;
73107;SDS011;61559;50.476;15.588;2023-08-30T05:15:39;2.50;;;0.90;;
73107;SDS011;61559;50.476;15.588;2023-08-30T05:18:10;1.40;;;0.80;;
73107;SDS011;61559;50.476;15.588;2023-08-30T05:20:41;1.30;;;0.80;;
73107;SDS011;61559;50.476;15.588;2023-08-30T05:23:12;1.10;;;0.70;;
73107;SDS011;61559;50.476;15.588;2023-08-30T05:25:44;0.70;;;0.60;;
73107;SDS011;61559;50.476;15.588;2023-08-30T05:28:15;0.70;;;0.60;;
73107;SDS011;61559;50.476;15.588;2023-08-30T05:30:46;1.60;;;0.60;;
73107;SDS011;61559;50.476;15.588;2023-08-30T05:33:17;1.10;;;0.80;;
73107;SDS011;61559;50.476;15.588;2023-08-30T05:35:49;1.20;;;0.80;;
73107;SDS011;61559;50.476;15.588;2023-08-30T05:38:20;0.90;;;0.60;;
73107;SDS011;61559;50.476;15.588;2023-08-30T05:40:51;1.00;;;0.80;;
73107;SDS011;61559;50.476;15.588;2023-08-30T05:43:22;0.90;;;0.60;;
73107;SDS011;61559;50.476;15.588;2023-08-30T05:45:53;0.80;;;0.80;;
73107;SDS011;61559;50.476;15.588;2023-08-30T05:48:29;0.70;;;0.60;;
73107;SDS011;61559;50.476;15.588;2023-08-30T05:51:02;0.80;;;0.60;;
73107;SDS011;61559;50.476;15.588;2023-08-30T05:53:33;1.50;;;0.60;;
73107;SDS011;61559;50.476;15.588;2023-08-30T05:56:05;1.50;;;0.50;;
73107;SDS011;61559;50.476;15.588;2023-08-30T05:58:36;0.70;;;0.70;;
73107;SDS011;61559;50.476;15.588;2023-08-30T06:01:07;0.70;;;0.70;;
73107;SDS011;61559;50.476;15.588;2023-08-30T06:03:38;0.50;;;0.50;;
73107;SDS011;61559;50.476;15.588;2023-08-30T06:06:09;2.30;;;0.70;;
73107;SDS011;61559;50.476;15.588;2023-08-30T06:08:41;0.70;;;0.70;;
73107;SDS011;61559;50.476;15.588;2023-08-30T06:11:12;0.60;;;0.60;;
73107;SDS011;61559;50.476;15.588;2023-08-30T06:13:43;1.30;;;0.60;;
73107;SDS011;61559;50.476;15.588;2023-08-30T06:16:14;0.70;;;0.60;;
73107;SDS011;61559;50.476;15.588;2023-08-30T06:18:45;0.70;;;0.70;;
73107;SDS011;61559;50.476;15.588;2023-08-30T06:21:16;0.40;;;0.40;;
73107;SDS011;61559;50.476;15.588;2023-08-30T06:23:47;2.50;;;0.60;;
73107;SDS011;61559;50.476;15.588;2023-08-30T06:26:20;1.10;;;0.50;;
73107;SDS011;61559;50.476;15.588;2023-08-30T06:28:51;1.40;;;0.70;;
73107;SDS011;61559;50.476;15.588;2023-08-30T06:31:32;0.70;;;0.60;;
73107;SDS011;61559;50.476;15.588;2023-08-30T06:34:03;1.30;;;0.90;;
73107;SDS011;61559;50.476;15.588;2023-08-30T06:36:34;1.90;;;0.80;;
73107;SDS011;61559;50.476;15.588;2023-08-30T06:39:05;0.90;;;0.60;;
73107;SDS011;61559;50.476;15.588;2023-08-30T06:41:36;1.70;;;0.60;;
73107;SDS011;61559;50.476;15.588;2023-08-30T06:44:07;1.20;;;0.70;;
73107;SDS011;61559;50.476;15.588;2023-08-30T06:46:39;0.70;;;0.60;;
73107;SDS011;61559;50.476;15.588;2023-08-30T06:49:10;0.70;;;0.50;;
73107;SDS011;61559;50.476;15.588;2023-08-30T06:51:41;2.00;;;0.60;;
73107;SDS011;61559;50.476;15.588;2023-08-30T06:54:12;0.40;;;0.40;;
73107;SDS011;61559;50.476;15.588;2023-08-30T06:59:25;0.60;;;0.40;;
73107;SDS011;61559;50.476;15.588;2023-08-30T07:01:56;0.60;;;0.60;;
73107;SDS011;61559;50.476;15.588;2023-08-30T07:04:28;0.50;;;0.40;;
73107;SDS011;61559;50.476;15.588;2023-08-30T07:06:59;0.70;;;0.40;;
73107;SDS011;61559;50.476;15.588;2023-08-30T07:09:31;1.80;;;0.50;;
73107;SDS011;61559;50.476;15.588;2023-08-30T07:12:03;0.70;;;0.40;;
73107;SDS011;61559;50.476;15.588;2023-08-30T07:14:35;0.40;;;0.40;;
73107;SDS011;61559;50.476;15.588;2023-08-30T07:17:06;1.30;;;0.40;;
73107;SDS011;61559;50.476;15.588;2023-08-30T07:19:37;0.40;;;0.40;;
73107;SDS011;61559;50.476;15.588;2023-08-30T07:22:09;0.70;;;0.30;;
73107;SDS011;61559;50.476;15.588;2023-08-30T07:24:40;0.90;;;0.50;;
73107;SDS011;61559;50.476;15.588;2023-08-30T07:27:11;2.90;;;0.50;;
73107;SDS011;61559;50.476;15.588;2023-08-30T07:29:42;2.10;;;0.50;;
73107;SDS011;61559;50.476;15.588;2023-08-30T07:32:13;0.90;;;0.80;;
73107;SDS011;61559;50.476;15.588;2023-08-30T07:34:44;0.60;;;0.60;;
73107;SDS011;61559;50.476;15.588;2023-08-30T07:37:19;0.60;;;0.60;;
73107;SDS011;61559;50.476;15.588;2023-08-30T07:39:52;0.90;;;0.80;;
73107;SDS011;61559;50.476;15.588;2023-08-30T07:42:23;1.00;;;0.80;;
73107;SDS011;61559;50.476;15.588;2023-08-30T07:44:54;1.10;;;0.80;;
73107;SDS011;61559;50.476;15.588;2023-08-30T07:47:25;1.30;;;1.00;;
73107;SDS011;61559;50.476;15.588;2023-08-30T07:49:56;1.70;;;0.80;;
73107;SDS011;61559;50.476;15.588;2023-08-30T07:52:29;1.00;;;0.80;;
73107;SDS011;61559;50.476;15.588;2023-08-30T07:55:14;2.10;;;0.80;;
73107;SDS011;61559;50.476;15.588;2023-08-30T07:57:45;1.10;;;0.70;;
73107;SDS011;61559;50.476;15.588;2023-08-30T08:00:17;1.00;;;0.70;;
73107;SDS011;61559;50.476;15.588;2023-08-30T08:02:48;2.10;;;0.90;;
73107;SDS011;61559;50.476;15.588;2023-08-30T08:05:20;1.00;;;0.80;;
73107;SDS011;61559;50.476;15.588;2023-08-30T08:07:51;0.90;;;0.80;;
73107;SDS011;61559;50.476;15.588;2023-08-30T08:10:23;0.70;;;0.40;;
73107;SDS011;61559;50.476;15.588;2023-08-30T08:12:54;0.60;;;0.50;;
73107;SDS011;61559;50.476;15.588;2023-08-30T08:15:27;0.80;;;0.60;;
73107;SDS011;61559;50.476;15.588;2023-08-30T08:17:59;0.60;;;0.50;;
73107;SDS011;61559;50.476;15.588;2023-08-30T08:20:30;1.70;;;0.70;;
73107;SDS011;61559;50.476;15.588;2023-08-30T08:23:02;0.40;;;0.40;;
73107;SDS011;61559;50.476;15.588;2023-08-30T08:25:34;1.20;;;0.50;;
73107;SDS011;61559;50.476;15.588;2023-08-30T08:28:05;0.50;;;0.40;;
73107;SDS011;61559;50.476;15.588;2023-08-30T08:30:37;0.60;;;0.40;;
73107;SDS011;61559;50.476;15.588;2023-08-30T08:33:10;1.50;;;0.70;;
73107;SDS011;61559;50.476;15.588;2023-08-30T08:35:41;1.80;;;1.20;;
73107;SDS011;61559;50.476;15.588;2023-08-30T08:38:12;2.70;;;1.70;;
73107;SDS011;61559;50.476;15.588;2023-08-30T08:40:43;3.50;;;2.00;;
73107;SDS011;61559;50.476;15.588;2023-08-30T08:43:14;1.80;;;1.50;;
73107;SDS011;61559;50.476;15.588;2023-08-30T08:45:47;1.40;;;1.30;;
73107;SDS011;61559;50.476;15.588;2023-08-30T08:48:19;1.40;;;1.30;;
73107;SDS011;61559;50.476;15.588;2023-08-30T08:50:51;1.50;;;1.20;;
73107;SDS011;61559;50.476;15.588;2023-08-30T08:53:23;0.50;;;0.50;;
73107;SDS011;61559;50.476;15.588;2023-08-30T08:55:55;0.70;;;0.40;;
73107;SDS011;61559;50.476;15.588;2023-08-30T08:58:27;1.00;;;0.50;;
73107;SDS011;61559;50.476;15.588;2023-08-30T09:00:59;0.90;;;0.60;;
73107;SDS011;61559;50.476;15.588;2023-08-30T09:03:33;2.50;;;0.60;;
73107;SDS011;61559;50.476;15.588;2023-08-30T09:06:05;0.50;;;0.50;;
73107;SDS011;61559;50.476;15.588;2023-08-30T09:08:36;1.60;;;0.50;;
73107;SDS011;61559;50.476;15.588;2023-08-30T09:11:07;2.20;;;0.60;;
73107;SDS011;61559;50.476;15.588;2023-08-30T09:13:39;0.40;;;0.40;;
73107;SDS011;61559;50.476;15.588;2023-08-30T09:16:14;0.80;;;0.50;;
73107;SDS011;61559;50.476;15.588;2023-08-30T09:18:56;0.90;;;0.70;;
73107;SDS011;61559;50.476;15.588;2023-08-30T09:21:38;0.50;;;0.50;;
73107;SDS011;61559;50.476;15.588;2023-08-30T09:24:19;0.60;;;0.60;;
73107;SDS011;61559;50.476;15.588;2023-08-30T09:26:51;0.70;;;0.60;;
73107;SDS011;61559;50.476;15.588;2023-08-30T09:29:23;0.80;;;0.60;;
73107;SDS011;61559;50.476;15.588;2023-08-30T09:31:55;0.80;;;0.60;;
73107;SDS011;61559;50.476;15.588;2023-08-30T09:34:26;0.40;;;0.40;;
73107;SDS011;61559;50.476;15.588;2023-08-30T09:36:57;0.40;;;0.40;;
73107;SDS011;61559;50.476;15.588;2023-08-30T09:39:34;0.60;;;0.60;;
73107;SDS011;61559;50.476;15.588;2023-08-30T09:42:05;0.70;;;0.60;;
73107;SDS011;61559;50.476;15.588;2023-08-30T09:44:36;1.30;;;0.60;;
73107;SDS011;61559;50.476;15.588;2023-08-30T09:47:08;0.60;;;0.50;;
73107;SDS011;61559;50.476;15.588;2023-08-30T09:49:41;0.80;;;0.80;;
73107;SDS011;61559;50.476;15.588;2023-08-30T09:52:15;0.90;;;0.70;;
73107;SDS011;61559;50.476;15.588;2023-08-30T09:54:47;1.40;;;0.70;;
73107;SDS011;61559;50.476;15.588;2023-08-30T09:57:19;0.70;;;0.60;;
73107;SDS011;61559;50.476;15.588;2023-08-30T09:59:50;0.70;;;0.50;;
73107;SDS011;61559;50.476;15.588;2023-08-30T10:02:22;0.40;;;0.40;;
73107;SDS011;61559;50.476;15.588;2023-08-30T10:04:54;1.00;;;0.60;;
73107;SDS011;61559;50.476;15.588;2023-08-30T10:07:27;0.80;;;0.50;;
73107;SDS011;61559;50.476;15.588;2023-08-30T10:09:59;0.50;;;0.50;;
73107;SDS011;61559;50.476;15.588;2023-08-30T10:12:37;0.50;;;0.40;;
73107;SDS011;61559;50.476;15.588;2023-08-30T10:15:21;0.60;;;0.50;;
73107;SDS011;61559;50.476;15.588;2023-08-30T10:17:55;1.20;;;0.50;;
73107;SDS011;61559;50.476;15.588;2023-08-30T10:20:31;1.50;;;0.60;;
73107;SDS011;61559;50.476;15.588;2023-08-30T10:23:04;0.40;;;0.40;;
73107;SDS011;61559;50.476;15.588;2023-08-30T10:25:37;1.60;;;0.50;;
73107;SDS011;61559;50.476;15.588;2023-08-30T10:28:09;0.50;;;0.50;;
73107;SDS011;61559;50.476;15.588;2023-08-30T10:30:41;0.60;;;0.50;;
73107;SDS011;61559;50.476;15.588;2023-08-30T10:33:13;1.30;;;0.40;;
73107;SDS011;61559;50.476;15.588;2023-08-30T10:35:49;1.00;;;0.40;;
73107;SDS011;61559;50.476;15.588;2023-08-30T10:38:26;0.80;;;0.40;;
73107;SDS011;61559;50.476;15.588;2023-08-30T10:41:06;0.40;;;0.30;;
73107;SDS011;61559;50.476;15.588;2023-08-30T10:43:38;1.60;;;0.40;;
73107;SDS011;61559;50.476;15.588;2023-08-30T10:46:09;1.20;;;0.40;;
73107;SDS011;61559;50.476;15.588;2023-08-30T10:48:40;1.10;;;0.50;;
73107;SDS011;61559;50.476;15.588;2023-08-30T10:51:21;0.60;;;0.40;;
73107;SDS011;61559;50.476;15.588;2023-08-30T10:54:11;1.00;;;0.50;;
73107;SDS011;61559;50.476;15.588;2023-08-30T10:56:47;0.50;;;0.50;;
73107;SDS011;61559;50.476;15.588;2023-08-30T10:59:24;0.50;;;0.40;;
73107;SDS011;61559;50.476;15.588;2023-08-30T11:01:55;0.80;;;0.70;;
73107;SDS011;61559;50.476;15.588;2023-08-30T11:04:32;0.80;;;0.50;;
73107;SDS011;61559;50.476;15.588;2023-08-30T11:07:09;0.60;;;0.60;;
73107;SDS011;61559;50.476;15.588;2023-08-30T11:09:42;0.60;;;0.40;;
73107;SDS011;61559;50.476;15.588;2023-08-30T11:12:14;0.30;;;0.30;;
73107;SDS011;61559;50.476;15.588;2023-08-30T11:14:51;0.30;;;0.30;;
73107;SDS011;61559;50.476;15.588;2023-08-30T11:17:23;0.30;;;0.30;;
73107;SDS011;61559;50.476;15.588;2023-08-30T11:19:58;1.00;;;0.60;;
73107;SDS011;61559;50.476;15.588;2023-08-30T11:22:37;0.40;;;0.40;;
73107;SDS011;61559;50.476;15.588;2023-08-30T11:25:11;1.70;;;1.60;;
73107;SDS011;61559;50.476;15.588;2023-08-30T11:27:42;0.90;;;0.40;;
73107;SDS011;61559;50.476;15.588;2023-08-30T11:30:14;0.40;;;0.40;;
73107;SDS011;61559;50.476;15.588;2023-08-30T11:32:47;0.60;;;0.50;;
73107;SDS011;61559;50.476;15.588;2023-08-30T11:35:19;0.30;;;0.30;;
73107;SDS011;61559;50.476;15.588;2023-08-30T11:37:53;0.90;;;0.60;;
73107;SDS011;61559;50.476;15.588;2023-08-30T11:40:24;1.70;;;0.70;;
73107;SDS011;61559;50.476;15.588;2023-08-30T11:42:56;1.20;;;0.80;;
73107;SDS011;61559;50.476;15.588;2023-08-30T11:45:28;1.20;;;0.70;;
73107;SDS011;61559;50.476;15.588;2023-08-30T11:48:03;3.10;;;0.80;;
73107;SDS011;61559;50.476;15.588;2023-08-30T11:50:35;1.90;;;0.80;;
73107;SDS011;61559;50.476;15.588;2023-08-30T11:53:16;0.80;;;0.60;;
73107;SDS011;61559;50.476;15.588;2023-08-30T11:55:47;1.00;;;0.80;;
73107;SDS011;61559;50.476;15.588;2023-08-30T11:58:19;0.60;;;0.60;;
73107;SDS011;61559;50.476;15.588;2023-08-30T12:00:50;0.60;;;0.60;;
73107;SDS011;61559;50.476;15.588;2023-08-30T12:03:22;1.90;;;0.60;;
73107;SDS011;61559;50.476;15.588;2023-08-30T12:05:55;2.60;;;0.70;;
73107;SDS011;61559;50.476;15.588;2023-08-30T12:08:27;1.00;;;0.70;;
73107;SDS011;61559;50.476;15.588;2023-08-30T12:11:00;1.00;;;0.60;;
73107;SDS011;61559;50.476;15.588;2023-08-30T12:13:33;0.90;;;0.80;;
73107;SDS011;61559;50.476;15.588;2023-08-30T12:16:04;1.60;;;0.60;;
73107;SDS011;61559;50.476;15.588;2023-08-30T12:18:35;3.00;;;1.00;;
73107;SDS011;61559;50.476;15.588;2023-08-30T12:21:07;1.90;;;1.00;;
73107;SDS011;61559;50.476;15.588;2023-08-30T12:23:38;1.10;;;1.00;;
73107;SDS011;61559;50.476;15.588;2023-08-30T12:26:10;1.80;;;1.10;;
73107;SDS011;61559;50.476;15.588;2023-08-30T12:28:41;1.20;;;1.10;;
73107;SDS011;61559;50.476;15.588;2023-08-30T12:31:13;1.50;;;1.30;;
73107;SDS011;61559;50.476;15.588;2023-08-30T12:33:44;1.40;;;1.10;;
73107;SDS011;61559;50.476;15.588;2023-08-30T12:36:15;1.50;;;1.30;;
73107;SDS011;61559;50.476;15.588;2023-08-30T12:38:47;1.20;;;1.10;;
73107;SDS011;61559;50.476;15.588;2023-08-30T12:41:18;2.00;;;1.20;;
73107;SDS011;61559;50.476;15.588;2023-08-30T12:43:51;1.80;;;1.40;;
73107;SDS011;61559;50.476;15.588;2023-08-30T12:46:22;1.70;;;1.20;;
73107;SDS011;61559;50.476;15.588;2023-08-30T12:48:53;2.20;;;1.30;;
73107;SDS011;61559;50.476;15.588;2023-08-30T12:51:26;2.10;;;1.60;;
73107;SDS011;61559;50.476;15.588;2023-08-30T12:53:58;1.50;;;1.30;;
73107;SDS011;61559;50.476;15.588;2023-08-30T12:56:29;3.00;;;1.60;;
73107;SDS011;61559;50.476;15.588;2023-08-30T12:59:01;1.70;;;1.40;;
73107;SDS011;61559;50.476;15.588;2023-08-30T13:01:32;1.80;;;1.40;;
73107;SDS011;61559;50.476;15.588;2023-08-30T13:04:07;2.40;;;1.50;;
73107;SDS011;61559;50.476;15.588;2023-08-30T13:06:38;2.10;;;1.50;;
73107;SDS011;61559;50.476;15.588;2023-08-30T13:09:10;3.50;;;1.70;;
73107;SDS011;61559;50.476;15.588;2023-08-30T13:11:41;1.90;;;1.60;;
73107;SDS011;61559;50.476;15.588;2023-08-30T13:14:12;1.70;;;1.40;;
73107;SDS011;61559;50.476;15.588;2023-08-30T13:16:43;2.30;;;1.50;;
73107;SDS011;61559;50.476;15.588;2023-08-30T13:19:15;2.20;;;1.50;;
73107;SDS011;61559;50.476;15.588;2023-08-30T13:21:46;2.70;;;1.90;;
73107;SDS011;61559;50.476;15.588;2023-08-30T13:24:17;1.50;;;1.40;;
73107;SDS011;61559;50.476;15.588;2023-08-30T13:26:48;1.60;;;1.30;;
73107;SDS011;61559;50.476;15.588;2023-08-30T13:29:19;1.50;;;1.40;;
73107;SDS011;61559;50.476;15.588;2023-08-30T13:31:50;2.80;;;1.40;;
73107;SDS011;61559;50.476;15.588;2023-08-30T13:34:21;2.00;;;1.60;;
73107;SDS011;61559;50.476;15.588;2023-08-30T13:36:53;1.70;;;1.30;;
73107;SDS011;61559;50.476;15.588;2023-08-30T13:39:24;1.80;;;1.50;;
73107;SDS011;61559;50.476;15.588;2023-08-30T13:41:56;2.10;;;1.30;;
73107;SDS011;61559;50.476;15.588;2023-08-30T13:44:27;1.20;;;1.10;;
73107;SDS011;61559;50.476;15.588;2023-08-30T13:46:58;1.80;;;1.30;;
73107;SDS011;61559;50.476;15.588;2023-08-30T13:49:31;1.30;;;1.20;;
73107;SDS011;61559;50.476;15.588;2023-08-30T13:52:02;1.80;;;1.30;;
73107;SDS011;61559;50.476;15.588;2023-08-30T13:54:34;2.70;;;1.60;;
73107;SDS011;61559;50.476;15.588;2023-08-30T13:57:05;1.90;;;1.30;;
73107;SDS011;61559;50.476;15.588;2023-08-30T13:59:37;1.50;;;1.30;;
73107;SDS011;61559;50.476;15.588;2023-08-30T14:02:08;2.00;;;1.40;;
73107;SDS011;61559;50.476;15.588;2023-08-30T14:04:39;2.50;;;1.30;;
73107;SDS011;61559;50.476;15.588;2023-08-30T14:07:10;2.20;;;1.60;;
73107;SDS011;61559;50.476;15.588;2023-08-30T14:09:41;1.50;;;1.10;;
73107;SDS011;61559;50.476;15.588;2023-08-30T14:12:12;1.40;;;1.20;;
73107;SDS011;61559;50.476;15.588;2023-08-30T14:14:43;1.40;;;1.20;;
73107;SDS011;61559;50.476;15.588;2023-08-30T14:17:15;1.50;;;1.30;;
73107;SDS011;61559;50.476;15.588;2023-08-30T14:19:47;1.30;;;1.10;;
73107;SDS011;61559;50.476;15.588;2023-08-30T14:22:19;3.00;;;1.20;;
73107;SDS011;61559;50.476;15.588;2023-08-30T14:24:51;1.00;;;0.90;;
73107;SDS011;61559;50.476;15.588;2023-08-30T14:27:38;1.60;;;1.00;;
73107;SDS011;61559;50.476;15.588;2023-08-30T14:30:10;0.80;;;0.80;;
73107;SDS011;61559;50.476;15.588;2023-08-30T14:32:41;3.10;;;1.20;;
73107;SDS011;61559;50.476;15.588;2023-08-30T14:35:13;1.70;;;1.00;;
73107;SDS011;61559;50.476;15.588;2023-08-30T14:37:44;1.50;;;1.10;;
73107;SDS011;61559;50.476;15.588;2023-08-30T14:40:15;1.40;;;1.30;;
73107;SDS011;61559;50.476;15.588;2023-08-30T14:42:47;1.50;;;1.10;;
73107;SDS011;61559;50.476;15.588;2023-08-30T14:45:18;1.10;;;1.00;;
73107;SDS011;61559;50.476;15.588;2023-08-30T14:47:49;1.50;;;1.20;;
73107;SDS011;61559;50.476;15.588;2023-08-30T14:50:20;1.60;;;1.30;;
73107;SDS011;61559;50.476;15.588;2023-08-30T14:52:51;1.90;;;1.40;;
73107;SDS011;61559;50.476;15.588;2023-08-30T14:55:23;1.50;;;1.30;;
73107;SDS011;61559;50.476;15.588;2023-08-30T14:57:55;1.80;;;1.40;;
73107;SDS011;61559;50.476;15.588;2023-08-30T15:00:26;2.00;;;1.40;;
73107;SDS011;61559;50.476;15.588;2023-08-30T15:02:57;2.20;;;1.70;;
73107;SDS011;61559;50.476;15.588;2023-08-30T15:05:28;3.50;;;2.00;;